createdAt,value
2018-03-02T00:00:58.501Z,96474
2018-03-02T00:03:27.448Z,96471
2018-03-02T00:05:55.632Z,96469
2018-03-02T00:08:23.844Z,96464
2018-03-02T00:10:52.840Z,96455
2018-03-02T00:13:21.779Z,96451
2018-03-02T00:15:50.018Z,96444
2018-03-02T00:18:18.974Z,96441
2018-03-02T00:20:47.160Z,96440
2018-03-02T00:23:15.419Z,96433
2018-03-02T00:25:43.654Z,96438
2018-03-02T00:28:11.853Z,96440
2018-03-02T00:30:40.804Z,96432
2018-03-02T00:33:09.755Z,96431
2018-03-02T00:35:37.939Z,96422
2018-03-02T00:38:06.132Z,96420
2018-03-02T00:40:34.318Z,96417
2018-03-02T00:43:03.258Z,96410
2018-03-02T00:45:31.446Z,96401
2018-03-02T00:47:59.660Z,96400
2018-03-02T00:50:28.608Z,96393
2018-03-02T00:52:56.782Z,96389
2018-03-02T00:55:24.955Z,96387
2018-03-02T00:57:53.136Z,96389
2018-03-02T01:00:21.318Z,96386
2018-03-02T01:02:50.280Z,96379
2018-03-02T01:05:18.478Z,96383
2018-03-02T01:07:46.660Z,96375
2018-03-02T01:10:14.841Z,96365
2018-03-02T01:12:43.023Z,96360
2018-03-02T01:15:11.274Z,96352
2018-03-02T01:17:39.452Z,96348
2018-03-02T01:20:07.680Z,96347
2018-03-02T01:22:36.633Z,96343
2018-03-02T01:25:04.826Z,96336
2018-03-02T01:27:33.019Z,96341
2018-03-02T01:30:02.001Z,96338
2018-03-02T01:32:30.944Z,96327
2018-03-02T01:34:59.186Z,96326
2018-03-02T01:37:28.187Z,96321
2018-03-02T01:39:56.360Z,96313
2018-03-02T01:42:24.537Z,96313
2018-03-02T01:44:52.719Z,96312
2018-03-02T01:47:21.926Z,96305
2018-03-02T01:49:50.102Z,96302
2018-03-02T01:52:18.299Z,96295
2018-03-02T01:54:46.511Z,96294
2018-03-02T01:57:15.518Z,96288
2018-03-02T01:59:44.462Z,96285
2018-03-02T02:02:12.672Z,96290
2018-03-02T02:04:41.632Z,96278
2018-03-02T02:07:09.825Z,96277
2018-03-02T02:09:38.013Z,96275
2018-03-02T02:12:06.970Z,96272
2018-03-02T02:14:35.231Z,96268
2018-03-02T02:17:03.410Z,96270
2018-03-02T02:19:31.599Z,96264
2018-03-02T02:21:59.778Z,96256
2018-03-02T02:24:27.954Z,96254
2018-03-02T02:26:56.158Z,96247
2018-03-02T02:29:25.128Z,96256
2018-03-02T02:31:54.247Z,96247
2018-03-02T02:34:23.198Z,96245
2018-03-02T02:36:51.381Z,96248
2018-03-02T02:39:19.563Z,96245
2018-03-02T02:41:47.807Z,96237
2018-03-02T02:44:15.989Z,96238
2018-03-02T02:46:44.197Z,96234
2018-03-02T02:49:12.382Z,96230
2018-03-02T02:51:40.558Z,96232
2018-03-02T02:54:08.805Z,96222
2018-03-02T02:56:36.981Z,96220
2018-03-02T02:59:05.943Z,96222
2018-03-02T03:01:34.155Z,96217
2018-03-02T03:04:02.354Z,96218
2018-03-02T03:06:30.531Z,96215
2018-03-02T03:08:59.485Z,96210
2018-03-02T03:11:27.666Z,96202
2018-03-02T03:13:55.846Z,96198
2018-03-02T03:16:24.022Z,96191
2018-03-02T03:18:52.194Z,96188
2018-03-02T03:21:20.399Z,96191
2018-03-02T03:23:49.366Z,96190
2018-03-02T03:26:17.616Z,96184
2018-03-02T03:28:45.837Z,96184
2018-03-02T03:31:14.017Z,96186
2018-03-02T03:33:42.203Z,96180
2018-03-02T03:36:11.138Z,96177
2018-03-02T03:38:39.315Z,96167
2018-03-02T03:41:07.495Z,96162
2018-03-02T03:43:35.722Z,96157
2018-03-02T03:46:03.889Z,96149
2018-03-02T03:48:32.844Z,96145
2018-03-02T03:51:01.030Z,96138
2018-03-02T03:53:29.219Z,96136
2018-03-02T03:55:57.399Z,96132
2018-03-02T03:58:25.579Z,96130
2018-03-02T04:00:54.533Z,96124
2018-03-02T04:03:22.742Z,96124
2018-03-02T04:05:50.916Z,96122
2018-03-02T04:08:19.102Z,96115
2018-03-02T04:10:48.050Z,96120
2018-03-02T04:13:16.249Z,96112
2018-03-02T04:15:44.437Z,96106
2018-03-02T04:18:13.481Z,96106
2018-03-02T04:20:41.667Z,96095
2018-03-02T04:23:09.850Z,96092
2018-03-02T04:25:38.048Z,96087
2018-03-02T04:28:06.250Z,96076
2018-03-02T04:30:35.215Z,96075
2018-03-02T04:33:03.401Z,96068
2018-03-02T04:35:32.351Z,96066
2018-03-02T04:38:00.549Z,96059
2018-03-02T04:40:28.730Z,96054
2018-03-02T04:42:56.914Z,96051
2018-03-02T04:45:25.114Z,96043
2018-03-02T04:47:54.050Z,96042
2018-03-02T04:50:22.235Z,96036
2018-03-02T04:52:50.418Z,96032
2018-03-02T04:55:18.614Z,96030
2018-03-02T04:57:47.578Z,96033
2018-03-02T05:00:15.799Z,96028
2018-03-02T05:02:43.974Z,96025
2018-03-02T05:05:12.147Z,96023
2018-03-02T05:07:41.578Z,96018
2018-03-02T05:10:09.886Z,96012
2018-03-02T05:12:38.071Z,96017
2018-03-02T05:15:06.267Z,96014
2018-03-02T05:17:34.477Z,96013
2018-03-02T05:20:02.662Z,96005
2018-03-02T05:22:30.840Z,96000
2018-03-02T05:24:59.068Z,95996
2018-03-02T05:27:28.022Z,96001
2018-03-02T05:29:56.201Z,96002
2018-03-02T05:32:24.399Z,95997
2018-03-02T05:34:53.362Z,95998
2018-03-02T05:37:21.544Z,95994
2018-03-02T05:39:49.740Z,96001
2018-03-02T05:42:18.071Z,95994
2018-03-02T05:44:46.346Z,95996
2018-03-02T05:47:14.521Z,95998
2018-03-02T05:49:42.694Z,95995
2018-03-02T05:52:10.879Z,96001
2018-03-02T05:54:39.077Z,95999
2018-03-02T05:57:07.330Z,95995
2018-03-02T05:59:35.513Z,95991
2018-03-02T06:02:03.688Z,95994
2018-03-02T06:04:31.858Z,95988
2018-03-02T06:07:00.075Z,95989
2018-03-02T06:09:29.023Z,95988
2018-03-02T06:11:57.208Z,95984
2018-03-02T06:14:25.391Z,95977
2018-03-02T06:16:54.348Z,95982
2018-03-02T06:19:22.528Z,95980
2018-03-02T06:21:50.703Z,95984
2018-03-02T06:24:18.916Z,95979
2018-03-02T06:26:47.103Z,95980
2018-03-02T06:29:16.103Z,95978
2018-03-02T06:31:45.094Z,95973
2018-03-02T06:34:14.125Z,95979
2018-03-02T06:36:42.313Z,95977
2018-03-02T06:39:10.501Z,95980
2018-03-02T06:41:38.692Z,95978
2018-03-02T06:44:06.888Z,95979
2018-03-02T06:46:35.887Z,95985
2018-03-02T06:49:04.834Z,95983
2018-03-02T06:51:33.044Z,95979
2018-03-02T06:54:01.267Z,95980
2018-03-02T06:56:29.452Z,95978
2018-03-02T06:58:57.639Z,95978
2018-03-02T07:01:25.831Z,95978
2018-03-02T07:03:54.008Z,95977
2018-03-02T07:06:22.199Z,95979
2018-03-02T07:08:51.142Z,95980
2018-03-02T07:11:19.327Z,95979
2018-03-02T07:13:47.503Z,95978
2018-03-02T07:16:15.705Z,95978
2018-03-02T07:18:43.890Z,95979
2018-03-02T07:21:12.845Z,95979
2018-03-02T07:23:41.021Z,95977
2018-03-02T07:26:09.259Z,95977
2018-03-02T07:28:37.456Z,95979
2018-03-02T07:31:05.657Z,95981
2018-03-02T07:33:33.883Z,95982
2018-03-02T07:36:02.132Z,95980
2018-03-02T07:38:31.078Z,95973
2018-03-02T07:40:59.355Z,95980
2018-03-02T07:43:27.534Z,95974
2018-03-02T07:45:55.715Z,95975
2018-03-02T07:48:23.967Z,95977
2018-03-02T07:50:52.154Z,95974
2018-03-02T07:53:20.343Z,95973
2018-03-02T07:55:48.529Z,95966
2018-03-02T07:58:16.698Z,95966
2018-03-02T08:00:44.893Z,95958
2018-03-02T08:03:13.078Z,95961
2018-03-02T08:05:42.037Z,95956
2018-03-02T08:08:10.234Z,95948
2018-03-02T08:10:38.431Z,95950
2018-03-02T08:13:07.401Z,95946
2018-03-02T08:15:35.586Z,95949
2018-03-02T08:18:03.769Z,95947
2018-03-02T08:20:32.722Z,95941
2018-03-02T08:23:00.894Z,95937
2018-03-02T08:25:29.125Z,95936
2018-03-02T08:27:58.066Z,95933
2018-03-02T09:52:23.920Z,95843
2018-03-02T09:54:52.097Z,95843
2018-03-02T09:57:20.306Z,95835
2018-03-02T09:59:48.499Z,95843
2018-03-02T10:02:16.685Z,95842
2018-03-02T10:04:45.665Z,95835
2018-03-02T10:07:13.851Z,95835
2018-03-02T10:09:42.040Z,95833
2018-03-02T10:12:10.993Z,95834
2018-03-02T10:14:39.166Z,95837
2018-03-02T10:17:07.347Z,95841
2018-03-02T10:19:35.526Z,95842
2018-03-02T10:22:03.718Z,95839
2018-03-02T10:24:31.901Z,95833
2018-03-02T10:27:00.849Z,95827
2018-03-02T10:29:29.027Z,95823
2018-03-02T10:31:57.236Z,95818
2018-03-02T10:34:26.179Z,95812
2018-03-02T10:36:54.356Z,95811
2018-03-02T10:39:22.530Z,95817
2018-03-02T10:41:50.734Z,95820
2018-03-02T10:44:18.902Z,95811
2018-03-02T10:46:47.862Z,95799
2018-03-02T10:49:16.097Z,95796
2018-03-02T10:51:45.051Z,95783
2018-03-02T10:54:13.223Z,95773
2018-03-02T10:56:41.466Z,95767
2018-03-02T10:59:09.637Z,95759
2018-03-02T11:01:43.418Z,95755
2018-03-02T11:04:11.657Z,95749
2018-03-02T11:06:39.850Z,95736
2018-03-02T11:09:08.059Z,95735
2018-03-02T11:11:37.000Z,95727
2018-03-02T11:14:05.174Z,95727
2018-03-02T11:16:33.412Z,95714
2018-03-02T11:19:01.652Z,95703
2018-03-02T11:21:29.844Z,95696
2018-03-02T11:23:58.793Z,95685
2018-03-02T11:26:27.004Z,95679
2018-03-02T11:28:55.179Z,95675
2018-03-02T11:31:23.393Z,95667
2018-03-02T11:33:51.610Z,95658
2018-03-02T11:36:19.790Z,95656
2018-03-02T11:38:47.978Z,95651
2018-03-02T11:41:16.167Z,95651
2018-03-02T11:43:45.112Z,95639
2018-03-02T11:46:13.335Z,95635
2018-03-02T11:48:42.299Z,95635
2018-03-02T11:51:10.481Z,95619
2018-03-02T11:53:38.669Z,95619
2018-03-02T11:56:07.694Z,95619
2018-03-02T11:58:35.950Z,95608
2018-03-02T12:01:04.923Z,95603
2018-03-02T12:03:33.122Z,95591
2018-03-02T12:06:02.084Z,95577
2018-03-02T12:08:30.267Z,95578
2018-03-02T12:10:58.452Z,95572
2018-03-02T12:13:27.404Z,95565
2018-03-02T12:15:55.603Z,95561
2018-03-02T12:18:23.792Z,95556
2018-03-02T12:20:52.776Z,95553
2018-03-02T12:23:20.955Z,95547
2018-03-02T12:25:49.143Z,95540
2018-03-02T12:28:18.085Z,95547
2018-03-02T12:30:46.336Z,95533
2018-03-02T12:33:14.528Z,95539
2018-03-02T12:35:42.711Z,95536
2018-03-02T12:38:10.899Z,95531
2018-03-02T12:40:39.099Z,95534
2018-03-02T12:43:08.050Z,95537
2018-03-02T12:45:36.253Z,95543
2018-03-02T12:48:04.447Z,95530
2018-03-02T12:50:33.399Z,95532
2018-03-02T12:53:01.599Z,95524
2018-03-02T12:55:29.790Z,95520
2018-03-02T12:57:58.735Z,95520
2018-03-02T13:00:26.938Z,95510
2018-03-02T13:02:55.141Z,95504
2018-03-02T13:05:24.097Z,95513
2018-03-02T13:07:52.295Z,95504
2018-03-02T13:10:20.472Z,95508
2018-03-02T13:12:48.666Z,95500
2018-03-02T13:15:17.615Z,95505
2018-03-02T13:17:45.808Z,95508
2018-03-02T13:20:14.006Z,95510
2018-03-02T13:22:43.220Z,95505
2018-03-02T13:25:12.166Z,95502
2018-03-02T13:27:58.183Z,95509
2018-03-02T13:30:27.131Z,95513
2018-03-02T13:33:13.231Z,95515
2018-03-02T13:35:41.414Z,95521
2018-03-02T13:38:09.604Z,95511
2018-03-02T13:40:55.538Z,95502
2018-03-02T13:43:23.783Z,95499
2018-03-02T13:45:51.941Z,95503
2018-03-02T13:48:46.814Z,95507
2018-03-02T13:51:15.006Z,95505
2018-03-02T13:53:43.182Z,95500
2018-03-02T13:56:29.216Z,95489
2018-03-02T13:58:57.450Z,95500
2018-03-02T14:01:25.648Z,95502
2018-03-02T14:04:12.453Z,95491
2018-03-02T14:06:40.695Z,95491
2018-03-02T14:09:08.879Z,95488
2018-03-02T14:11:37.069Z,95480
2018-03-02T14:14:05.263Z,95486
2018-03-02T14:16:34.222Z,95488
2018-03-02T14:19:02.509Z,95490
2018-03-02T14:21:30.689Z,95491
2018-03-02T14:23:58.880Z,95486
2018-03-02T14:26:27.870Z,95484
2018-03-02T14:28:56.065Z,95476
2018-03-02T14:31:25.008Z,95485
2018-03-02T14:33:53.209Z,95472
2018-03-02T14:36:21.403Z,95474
2018-03-02T14:38:50.357Z,95471
2018-03-02T14:41:18.537Z,95474
2018-03-02T14:43:46.730Z,95471
2018-03-02T14:46:14.986Z,95469
2018-03-02T14:48:43.178Z,95470
2018-03-02T14:51:11.358Z,95462
2018-03-02T14:53:39.552Z,95465
2018-03-02T14:56:08.519Z,95457
2018-03-02T14:58:36.709Z,95457
2018-03-02T15:01:05.670Z,95451
2018-03-02T15:03:33.869Z,95445
2018-03-02T15:06:02.913Z,95441
2018-03-02T15:08:31.090Z,95440
2018-03-02T15:10:59.267Z,95436
2018-03-02T15:13:27.438Z,95432
2018-03-02T15:15:55.684Z,95429
2018-03-02T15:18:23.894Z,95425
2018-03-02T15:20:52.090Z,95420
2018-03-02T15:23:20.314Z,95412
2018-03-02T15:25:49.282Z,95413
2018-03-02T15:28:17.531Z,95406
2018-03-02T15:30:45.703Z,95406
2018-03-02T15:33:13.886Z,95405
2018-03-02T15:35:42.069Z,95392
2018-03-02T15:38:10.258Z,95390
2018-03-02T15:40:39.233Z,95388
2018-03-02T15:43:07.410Z,95392
2018-03-02T15:45:35.596Z,95388
2018-03-02T15:48:03.784Z,95396
2018-03-02T15:50:32.727Z,95390
2018-03-02T15:53:00.959Z,95390
2018-03-02T15:55:29.942Z,95393
2018-03-02T15:57:58.908Z,95399
2018-03-02T16:00:27.090Z,95387
2018-03-02T16:02:55.306Z,95391
2018-03-02T16:05:23.489Z,95407
2018-03-02T16:07:51.729Z,95403
2018-03-02T16:10:19.915Z,95408
2018-03-02T16:12:48.871Z,95407
2018-03-02T16:15:17.066Z,95405
2018-03-02T16:17:45.298Z,95406
2018-03-02T16:20:13.560Z,95405
2018-03-02T16:22:41.751Z,95401
2018-03-02T16:25:09.951Z,95403
2018-03-02T16:27:38.148Z,95410
2018-03-02T16:30:06.328Z,95409
2018-03-02T16:32:35.297Z,95414
2018-03-02T16:35:03.495Z,95404
2018-03-02T16:37:32.446Z,95413
2018-03-02T16:40:00.627Z,95409
2018-03-02T16:42:28.849Z,95407
2018-03-02T16:44:57.795Z,95406
2018-03-02T16:47:25.971Z,95413
2018-03-02T16:49:54.155Z,95414
2018-03-02T16:52:22.342Z,95411
2018-03-02T16:54:50.538Z,95416
2018-03-02T16:57:19.488Z,95418
2018-03-02T16:59:47.718Z,95421
2018-03-02T17:02:15.905Z,95431
2018-03-02T17:04:44.093Z,95433
2018-03-02T17:07:12.325Z,95444
2018-03-02T17:09:41.281Z,95441
2018-03-02T17:12:09.588Z,95453
2018-03-02T17:14:37.783Z,95454
2018-03-02T17:17:05.992Z,95457
2018-03-02T17:19:34.201Z,95461
2018-03-02T17:22:02.407Z,95469
2018-03-02T17:24:31.387Z,95468
2018-03-02T17:27:00.345Z,95469
2018-03-02T17:29:28.538Z,95468
2018-03-02T17:31:56.759Z,95467
2018-03-02T17:34:24.957Z,95469
2018-03-02T17:36:53.155Z,95472
2018-03-02T17:39:21.350Z,95478
2018-03-02T17:41:49.600Z,95487
2018-03-02T17:44:17.810Z,95489
2018-03-02T17:46:46.776Z,95496
2018-03-02T17:49:14.958Z,95487
2018-03-02T17:51:43.173Z,95494
2018-03-02T17:54:11.375Z,95498
2018-03-02T17:56:39.565Z,95497
2018-03-02T17:59:07.744Z,95507
2018-03-02T18:01:35.920Z,95520
2018-03-02T18:04:04.115Z,95516
2018-03-02T18:06:32.298Z,95522
2018-03-02T18:09:01.293Z,95522
2018-03-02T18:11:30.280Z,95526
2018-03-02T18:13:58.471Z,95537
2018-03-02T18:16:27.470Z,95534
2018-03-02T18:18:56.420Z,95542
2018-03-02T18:21:24.602Z,95542
2018-03-02T18:23:52.801Z,95551
2018-03-02T18:26:21.009Z,95554
2018-03-02T18:28:49.184Z,95559
2018-03-02T18:31:17.386Z,95564
2018-03-02T18:33:45.606Z,95571
2018-03-02T18:36:14.563Z,95577
2018-03-02T18:38:42.777Z,95586
2018-03-02T18:41:11.735Z,95588
2018-03-02T18:43:39.925Z,95594
2018-03-02T18:46:08.145Z,95594
2018-03-02T18:48:36.356Z,95600
2018-03-02T18:51:04.567Z,95601
2018-03-02T18:53:33.516Z,95605
2018-03-02T18:56:01.711Z,95615
2018-03-02T18:58:29.919Z,95617
2018-03-02T19:00:58.965Z,95622
2018-03-02T19:03:27.199Z,95633
2018-03-02T19:05:55.402Z,95640
2018-03-02T19:08:23.599Z,95642
2018-03-02T19:10:51.845Z,95647
2018-03-02T19:13:20.021Z,95647
2018-03-02T19:15:48.223Z,95655
2018-03-02T19:18:16.423Z,95656
2018-03-02T19:20:44.615Z,95654
2018-03-02T19:23:13.592Z,95646
2018-03-02T19:25:42.566Z,95648
2018-03-02T19:28:10.774Z,95647
2018-03-02T19:30:39.748Z,95655
2018-03-02T19:33:08.820Z,95655
2018-03-02T19:35:37.091Z,95654
2018-03-02T19:38:05.286Z,95654
2018-03-02T19:40:33.464Z,95657
2018-03-02T19:43:01.699Z,95659
2018-03-02T19:45:30.141Z,95662
2018-03-02T19:47:58.614Z,95665
2018-03-02T19:50:27.102Z,95672
2018-03-02T19:52:55.579Z,95674
2018-03-02T19:55:24.076Z,95672
2018-03-02T19:57:52.626Z,95677
2018-03-02T20:00:21.138Z,95676
2018-03-02T20:02:49.376Z,95678
2018-03-02T20:05:17.796Z,95681
2018-03-02T20:07:46.326Z,95680
2018-03-02T20:10:15.373Z,95681
2018-03-02T20:12:43.557Z,95683
2018-03-02T20:15:12.031Z,95689
2018-03-02T20:17:40.481Z,95692
2018-03-02T20:20:08.687Z,95698
2018-03-02T20:22:37.632Z,95700
2018-03-02T20:25:06.143Z,95702
2018-03-02T20:27:34.668Z,95706
2018-03-02T20:30:02.896Z,95708
2018-03-02T20:32:31.329Z,95706
2018-03-02T20:34:59.858Z,95717
2018-03-02T20:37:29.791Z,95713
2018-03-02T20:39:58.783Z,95715
2018-03-02T20:42:27.746Z,95719
2018-03-02T20:44:55.936Z,95720
2018-03-02T20:47:24.148Z,95719
2018-03-02T20:49:52.329Z,95725
2018-03-02T20:52:20.531Z,95724
2018-03-02T20:54:48.722Z,95725
2018-03-02T20:57:16.940Z,95725
2018-03-02T20:59:45.122Z,95721
2018-03-02T21:02:13.290Z,95729
2018-03-02T21:04:42.238Z,95728
2018-03-02T21:07:10.443Z,95737
2018-03-02T21:09:39.466Z,95733
2018-03-02T21:12:07.671Z,95739
2018-03-02T21:14:35.842Z,95738
2018-03-02T21:17:04.021Z,95743
2018-03-02T21:19:32.205Z,95739
2018-03-02T21:22:00.446Z,95744
2018-03-02T21:24:28.633Z,95747
2018-03-02T21:26:56.820Z,95744
2018-03-02T21:29:24.999Z,95754
2018-03-02T21:31:53.174Z,95759
2018-03-02T21:34:23.698Z,95761
2018-03-02T21:36:50.350Z,95761
2018-03-02T21:39:18.587Z,95771
2018-03-02T21:41:47.591Z,95767
2018-03-02T21:44:15.769Z,95767
2018-03-02T21:46:43.956Z,95769
2018-03-02T21:49:12.173Z,95771
2018-03-02T21:51:41.126Z,95768
2018-03-02T21:54:09.372Z,95772
2018-03-02T21:56:37.560Z,95776
2018-03-02T21:59:05.750Z,95776
2018-03-02T22:01:33.958Z,95779
2018-03-02T22:04:02.155Z,95779
2018-03-02T22:06:31.102Z,95772
2018-03-02T22:08:59.278Z,95772
2018-03-02T22:11:27.479Z,95777
2018-03-02T22:13:56.434Z,95767
2018-03-02T22:16:24.610Z,95770
2018-03-02T22:18:52.782Z,95769
2018-03-02T22:21:20.956Z,95769
2018-03-02T22:23:49.165Z,95778
2018-03-02T22:26:17.352Z,95780
2018-03-02T22:28:46.320Z,95778
2018-03-02T22:31:15.287Z,95784
2018-03-02T22:33:45.006Z,95782
2018-03-02T22:36:13.194Z,95783
2018-03-02T22:38:41.381Z,95781
2018-03-02T22:41:09.607Z,95772
2018-03-02T22:43:37.794Z,95772
2018-03-02T22:46:05.974Z,95773
2018-03-02T22:48:34.158Z,95786
2018-03-02T22:51:02.356Z,95784
2018-03-02T22:53:30.544Z,95777
2018-03-02T22:55:59.499Z,95773
2018-03-02T22:58:27.682Z,95778
2018-03-02T23:00:55.879Z,95772
2018-03-02T23:03:24.059Z,95780
2018-03-02T23:05:52.240Z,95781
2018-03-02T23:08:21.190Z,95781
2018-03-02T23:10:49.364Z,95785
2018-03-02T23:13:18.308Z,95791
2018-03-02T23:15:47.257Z,95789
2018-03-02T23:18:15.459Z,95803
2018-03-02T23:20:43.648Z,95803
2018-03-02T23:23:12.630Z,95807
2018-03-02T23:25:40.805Z,95805
2018-03-02T23:28:08.990Z,95808
2018-03-02T23:30:37.943Z,95812
2018-03-02T23:33:06.138Z,95811
2018-03-02T23:35:34.376Z,95814
2018-03-02T23:38:02.597Z,95811
2018-03-02T23:40:30.778Z,95811
2018-03-02T23:42:59.731Z,95811
2018-03-02T23:45:27.914Z,95812
2018-03-02T23:47:56.861Z,95819
2018-03-02T23:50:25.054Z,95820
2018-03-02T23:52:53.242Z,95821
2018-03-02T23:55:21.413Z,95826
2018-03-02T23:57:49.783Z,95830
